Time;durP1;ratioP1;P1;durP2;ratioP2;P2;SDS_P1;SDS_P2;PMS_P1;PMS_P2;Temp;Humidity;BMP_temperature;BMP_pressure;BME280_temperature;BME280_humidity;BME280_pressure;Samples;Min_cycle;Max_cycle;Signal;HPM_P1;HPM_P2
2024/02/29 00:03:34;;;;;;;33.47;15.32;;;;;;;7.67;100.00;101345.94;10491536;28;20063;-69
2024/02/29 00:08:34;;;;;;;20.80;15.80;;;;;;;7.67;100.00;101342.41;10489986;28;20468;-68
2024/02/29 00:13:35;;;;;;;20.48;13.75;;;;;;;7.61;100.00;101338.53;10491454;28;20074;-70
2024/02/29 00:18:35;;;;;;;32.95;18.25;;;;;;;7.64;100.00;101330.09;10490975;28;20464;-69
2024/02/29 00:23:36;;;;;;;28.92;19.23;;;;;;;7.68;100.00;101323.38;10490663;28;20029;-68
2024/02/29 00:28:37;;;;;;;29.23;20.20;;;;;;;7.64;100.00;101316.63;10490815;28;20031;-68
2024/02/29 00:33:37;;;;;;;36.63;18.75;;;;;;;7.79;100.00;101313.28;10489481;28;20062;-68
2024/02/29 00:38:38;;;;;;;29.73;18.98;;;;;;;7.75;100.00;101320.00;10478464;28;20031;-69
2024/02/29 00:43:40;;;;;;;24.65;19.63;;;;;;;7.78;100.00;101316.97;10497266;28;20020;-68
2024/02/29 00:48:41;;;;;;;27.73;20.00;;;;;;;7.75;100.00;101306.53;10498091;28;20158;-68
2024/02/29 00:53:41;;;;;;;32.15;19.50;;;;;;;7.77;100.00;101296.41;10497142;28;20064;-69
2024/02/29 00:58:42;;;;;;;30.77;18.80;;;;;;;7.71;100.00;101294.41;10497838;28;20032;-69
2024/02/29 01:03:42;;;;;;;24.95;16.77;;;;;;;7.74;100.00;101291.38;10497666;28;20059;-67
2024/02/29 01:08:42;;;;;;;24.35;18.25;;;;;;;7.55;100.00;101277.22;10495964;28;20491;-68
2024/02/29 01:13:43;;;;;;;30.95;22.58;;;;;;;7.45;100.00;101265.75;10496050;28;20472;-68
2024/02/29 01:18:44;;;;;;;26.85;17.75;;;;;;;7.41;100.00;101267.13;10496731;28;20056;-68
2024/02/29 01:23:44;;;;;;;28.70;18.98;;;;;;;7.27;100.00;101257.00;10494880;28;20029;-67
2024/02/29 01:28:44;;;;;;;26.63;17.25;;;;;;;7.07;100.00;101243.84;10495397;28;20028;-67
2024/02/29 01:33:45;;;;;;;24.27;14.45;;;;;;;7.01;100.00;101233.72;10496233;28;20078;-65
2024/02/29 01:38:45;;;;;;;28.48;17.20;;;;;;;7.00;100.00;101229.38;10494481;28;20059;-67
2024/02/29 01:44:04;;;;;;;24.00;18.98;;;;;;;6.93;100.00;101225.66;10495927;28;20094;-66
2024/02/29 01:49:04;;;;;;;32.58;17.95;;;;;;;7.06;100.00;101223.31;10493525;28;20032;-67
2024/02/29 01:54:05;;;;;;;22.42;15.40;;;;;;;7.10;100.00;101210.34;10493839;28;20053;-66
2024/02/29 01:59:05;;;;;;;24.85;19.25;;;;;;;7.14;100.00;101200.94;10495036;28;20480;-66
2024/02/29 02:04:05;;;;;;;26.83;19.77;;;;;;;7.16;100.00;101182.75;10494918;28;20115;-67
2024/02/29 02:09:06;;;;;;;22.85;17.58;;;;;;;7.17;100.00;101182.56;10493601;28;20162;-67
2024/02/29 02:14:06;;;;;;;26.30;19.90;;;;;;;7.16;100.00;101180.06;10494421;28;20485;-66
2024/02/29 02:19:13;;;;;;;1.90;1.85;;;;;;;7.15;100.00;101168.47;10475896;28;20036;-66
2024/02/29 02:24:13;;;;;;;3.05;2.80;;;;;;;7.18;100.00;101169.97;10492106;28;20017;-65
2024/02/29 02:29:14;;;;;;;2.17;2.08;;;;;;;7.21;100.00;101165.09;10493854;28;20444;-67
2024/02/29 02:34:14;;;;;;;0.77;0.77;;;;;;;7.18;100.00;101157.34;10492053;28;20059;-66
2024/02/29 02:39:15;;;;;;;2.15;2.05;;;;;;;7.29;100.00;101153.47;10493398;28;20028;-65
2024/02/29 02:44:15;;;;;;;0.68;0.68;;;;;;;7.31;100.00;101151.44;10491821;28;20491;-66
2024/02/29 02:49:16;;;;;;;4.18;3.97;;;;;;;7.19;100.00;101134.78;10491408;28;20045;-67
2024/02/29 02:54:16;;;;;;;3.47;3.08;;;;;;;7.30;100.00;101127.34;10491989;28;20047;-66
2024/02/29 02:59:17;;;;;;;0.93;0.93;;;;;;;7.37;100.00;101122.97;10492535;28;20056;-66
2024/02/29 03:04:17;;;;;;;1.63;1.63;;;;;;;7.35;100.00;101109.69;10492711;28;20057;-66
2024/02/29 03:09:18;;;;;;;0.60;0.60;;;;;;;7.31;100.00;101108.34;10492365;28;20024;-66
2024/02/29 03:14:18;;;;;;;0.50;0.50;;;;;;;7.37;100.00;101101.41;10492180;28;20148;-65
2024/02/29 03:19:18;;;;;;;0.73;0.73;;;;;;;7.39;100.00;101105.63;10492051;28;20072;-68
2024/02/29 03:24:19;;;;;;;1.10;1.10;;;;;;;7.31;100.00;101089.47;10491690;28;20074;-66
2024/02/29 03:29:19;;;;;;;1.10;1.10;;;;;;;7.35;100.00;101079.22;10491778;28;20361;-66
2024/02/29 03:34:19;;;;;;;1.42;1.38;;;;;;;7.37;100.00;101045.69;10491796;28;20052;-66
2024/02/29 03:39:20;;;;;;;1.00;1.00;;;;;;;7.33;100.00;101067.75;10491835;28;20040;-67
2024/02/29 03:44:20;;;;;;;0.70;0.70;;;;;;;7.39;100.00;101064.38;10491894;28;20430;-66
2024/02/29 03:49:21;;;;;;;1.20;1.20;;;;;;;7.38;100.00;101065.41;10491835;28;20052;-67
2024/02/29 03:54:21;;;;;;;0.65;0.65;;;;;;;7.43;100.00;101041.44;10490097;28;20064;-67
2024/02/29 03:59:21;;;;;;;2.17;1.58;;;;;;;7.41;100.00;101049.72;10491755;28;20498;-68
2024/02/29 04:04:22;;;;;;;1.02;1.02;;;;;;;7.54;100.00;101029.47;10491556;28;20107;-67
2024/02/29 04:09:22;;;;;;;1.08;1.08;;;;;;;7.59;100.00;101024.38;10491247;28;20484;-67
2024/02/29 04:14:23;;;;;;;1.20;1.20;;;;;;;7.59;100.00;101014.44;10481224;28;20020;-66
2024/02/29 04:19:23;;;;;;;1.08;1.08;;;;;;;7.55;100.00;101021.19;10499417;28;20064;-67
2024/02/29 04:24:23;;;;;;;2.17;2.08;;;;;;;7.64;100.00;101022.84;10498578;28;20181;-67
2024/02/29 04:29:24;;;;;;;0.47;0.47;;;;;;;7.73;100.00;101022.81;10498918;28;20483;-68
2024/02/29 04:34:24;;;;;;;1.85;1.75;;;;;;;7.73;100.00;101020.13;10498438;28;20027;-68
2024/02/29 04:39:25;;;;;;;0.93;0.93;;;;;;;7.80;100.00;101013.00;10497003;28;20024;-67
2024/02/29 04:44:25;;;;;;;2.10;2.05;;;;;;;7.73;100.00;101001.25;10498028;28;20467;-67
2024/02/29 04:49:25;;;;;;;1.50;1.50;;;;;;;7.66;100.00;100999.25;10498272;28;20025;-67
2024/02/29 04:54:26;;;;;;;1.92;1.83;;;;;;;7.67;100.00;100992.00;10496082;28;20533;-67
2024/02/29 04:59:26;;;;;;;0.80;0.80;;;;;;;7.69;100.00;100985.44;10497625;28;20032;-67
2024/02/29 05:04:27;;;;;;;4.20;1.70;;;;;;;7.75;100.00;100994.66;10496748;28;20120;-67
2024/02/29 05:09:27;;;;;;;0.50;0.50;;;;;;;7.76;100.00;100985.56;10497829;28;20060;-68
2024/02/29 05:14:27;;;;;;;0.63;0.63;;;;;;;7.74;100.00;100974.09;10497380;28;20111;-68
2024/02/29 05:19:28;;;;;;;0.65;0.65;;;;;;;7.75;100.00;100974.94;10496827;28;20028;-67
2024/02/29 05:24:29;;;;;;;3.67;3.47;;;;;;;7.80;100.00;100967.19;10496306;28;20031;-67
2024/02/29 05:29:30;;;;;;;1.95;1.67;;;;;;;7.73;100.00;100969.75;10496156;28;20511;-68
2024/02/29 05:34:30;;;;;;;1.13;1.02;;;;;;;7.73;100.00;100958.97;10468914;28;20094;-68
2024/02/29 05:39:33;;;;;;;1.65;1.38;;;;;;;7.73;100.00;100950.88;10495960;28;20041;-68
2024/02/29 05:44:34;;;;;;;0.75;0.75;;;;;;;7.70;100.00;100951.22;10443431;28;20126;-69
2024/02/29 05:49:34;;;;;;;0.60;0.60;;;;;;;7.66;100.00;100947.22;10495602;28;20032;-69
2024/02/29 05:54:35;;;;;;;0.75;0.75;;;;;;;7.64;100.00;100950.06;10492859;28;20049;-67
2024/02/29 05:59:35;;;;;;;0.40;0.40;;;;;;;7.64;100.00;100947.38;10494881;28;20028;-65
2024/02/29 06:04:36;;;;;;;0.63;0.63;;;;;;;7.56;100.00;100931.28;10494725;28;20055;-66
2024/02/29 06:09:36;;;;;;;3.53;2.65;;;;;;;7.59;100.00;100936.28;10492925;28;20024;-68
2024/02/29 06:14:37;;;;;;;9.38;2.78;;;;;;;7.51;100.00;100938.19;10435017;28;20051;-68
2024/02/29 06:19:39;;;;;;;0.70;0.70;;;;;;;7.54;100.00;100930.59;10493549;28;20381;-67
2024/02/29 06:24:39;;;;;;;0.65;0.65;;;;;;;7.62;100.00;100933.22;10493371;28;20085;-70
2024/02/29 06:29:39;;;;;;;2.83;2.65;;;;;;;7.55;100.00;100929.56;10493074;28;20029;-69
2024/02/29 06:34:40;;;;;;;0.77;0.77;;;;;;;7.57;100.00;100924.03;10491455;28;20472;-68
2024/02/29 06:39:41;;;;;;;0.45;0.45;;;;;;;7.62;100.00;100913.53;10493279;28;20104;-68
2024/02/29 06:44:41;;;;;;;0.93;0.93;;;;;;;7.54;100.00;100917.13;10493071;28;20544;-68
2024/02/29 06:49:41;;;;;;;0.40;0.40;;;;;;;7.60;100.00;100916.41;10493030;28;20071;-68
2024/02/29 06:54:44;;;;;;;1.17;1.17;;;;;;;7.60;100.00;100912.88;10492142;28;20078;-68
2024/02/29 06:59:44;;;;;;;0.80;0.80;;;;;;;7.67;100.00;100912.00;10490917;28;20103;-69
2024/02/29 07:04:45;;;;;;;1.30;1.30;;;;;;;7.71;100.00;100914.31;10492485;28;20020;-68
2024/02/29 07:09:45;;;;;;;0.65;0.65;;;;;;;7.72;100.00;100905.22;10492280;28;20369;-69
2024/02/29 07:14:46;;;;;;;0.77;0.77;;;;;;;7.80;100.00;100905.16;10490639;28;20028;-68
2024/02/29 07:19:46;;;;;;;0.70;0.70;;;;;;;7.78;100.00;100917.97;10492019;28;20111;-69
2024/02/29 07:24:47;;;;;;;0.75;0.75;;;;;;;7.66;100.00;100909.50;10489888;28;20373;-69
2024/02/29 07:29:47;;;;;;;2.30;2.20;;;;;;;7.67;100.00;100895.81;10491857;28;20580;-68
2024/02/29 07:34:47;;;;;;;0.60;0.60;;;;;;;7.73;100.00;100901.53;10490301;28;20032;-70
2024/02/29 07:39:48;;;;;;;2.35;2.17;;;;;;;7.82;100.00;100895.06;10490218;28;20032;-69
2024/02/29 07:44:49;;;;;;;1.63;1.63;;;;;;;7.84;100.00;100890.31;10491813;28;20028;-69
2024/02/29 07:49:50;;;;;;;0.95;0.95;;;;;;;7.86;100.00;100882.88;10482416;28;20109;-69
2024/02/29 07:54:51;;;;;;;7.85;4.68;;;;;;;7.91;100.00;100885.88;10499090;28;20127;-70
2024/02/29 07:59:52;;;;;;;1.55;1.23;;;;;;;7.83;100.00;100888.63;10499446;28;20024;-69
2024/02/29 08:04:52;;;;;;;0.68;0.68;;;;;;;7.84;100.00;100879.53;10499363;28;20368;-69
2024/02/29 08:09:53;;;;;;;0.40;0.40;;;;;;;7.87;100.00;100884.56;10499319;28;20075;-70
2024/02/29 08:14:53;;;;;;;0.57;0.57;;;;;;;7.91;100.00;100891.25;10497786;28;20640;-70
2024/02/29 08:19:54;;;;;;;1.45;1.30;;;;;;;7.84;100.00;100885.75;10499409;28;20020;-69
2024/02/29 08:24:54;;;;;;;1.85;1.05;;;;;;;7.93;100.00;100883.84;10498247;28;20100;-69
2024/02/29 08:29:54;;;;;;;1.50;1.50;;;;;;;7.99;100.00;100887.69;10498723;28;20085;-70
2024/02/29 08:34:56;;;;;;;1.77;1.77;;;;;;;7.93;100.00;100881.13;10498246;28;20029;-70
2024/02/29 08:39:57;;;;;;;1.38;1.38;;;;;;;7.82;100.00;100881.59;10498272;28;20051;-69
2024/02/29 08:44:57;;;;;;;0.47;0.47;;;;;;;7.92;100.00;100869.53;10498557;28;20035;-69
2024/02/29 08:49:57;;;;;;;2.25;2.15;;;;;;;8.00;100.00;100865.91;10497931;28;20457;-69
2024/02/29 08:54:58;;;;;;;0.90;0.90;;;;;;;8.02;100.00;100860.34;10480317;28;20076;-70
2024/02/29 08:59:59;;;;;;;1.38;1.38;;;;;;;8.02;100.00;100861.19;10497071;28;20047;-69
2024/02/29 09:04:59;;;;;;;1.10;1.10;;;;;;;8.15;100.00;100856.00;10497333;28;20388;-69
2024/02/29 09:10:00;;;;;;;2.15;2.05;;;;;;;8.20;100.00;100852.78;10497392;28;20024;-69
2024/02/29 09:15:02;;;;;;;1.38;1.38;;;;;;;8.23;100.00;100847.00;10497041;28;20043;-69
2024/02/29 09:20:04;;;;;;;0.73;0.73;;;;;;;8.12;100.00;100829.41;10479834;28;20364;-70
2024/02/29 09:25:06;;;;;;;1.55;1.55;;;;;;;8.13;100.00;100841.00;10497381;28;20357;-68
2024/02/29 09:30:07;;;;;;;0.50;0.50;;;;;;;8.29;100.00;100840.84;10479217;28;20421;-68
2024/02/29 09:35:07;;;;;;;0.70;0.70;;;;;;;8.41;100.00;100833.19;10495625;28;20062;-69
2024/02/29 09:40:08;;;;;;;0.75;0.75;;;;;;;8.46;100.00;100830.78;10495193;28;20036;-69
2024/02/29 09:45:12;;;;;;;1.33;1.33;;;;;;;8.38;100.00;100828.16;10495054;28;20024;-69
2024/02/29 09:50:12;;;;;;;0.63;0.63;;;;;;;8.34;100.00;100827.66;10462261;28;20353;-67
2024/02/29 09:55:13;;;;;;;0.55;0.55;;;;;;;8.27;100.00;100812.41;10495601;28;20080;-69
2024/02/29 10:00:14;;;;;;;1.30;1.30;;;;;;;8.18;100.00;100813.50;10493964;28;20028;-70
2024/02/29 10:05:14;;;;;;;0.88;0.88;;;;;;;8.20;100.00;100824.94;10476910;28;20024;-69
2024/02/29 10:10:16;;;;;;;1.98;1.98;;;;;;;8.23;100.00;100805.69;10475819;28;20643;-69
2024/02/29 10:15:16;;;;;;;4.57;2.90;;;;;;;8.31;100.00;100806.44;10493391;28;20100;-69
2024/02/29 10:20:20;;;;;;;0.75;0.75;;;;;;;8.37;100.00;100808.41;10494488;28;20115;-69
2024/02/29 10:25:20;;;;;;;0.45;0.45;;;;;;;8.53;100.00;100798.50;10493447;28;20031;-70
2024/02/29 10:30:21;;;;;;;0.65;0.65;;;;;;;8.45;100.00;100796.69;10492914;28;20032;-69
2024/02/29 10:35:23;;;;;;;0.75;0.75;;;;;;;8.51;100.00;100798.66;10492448;28;20033;-70
2024/02/29 10:40:25;;;;;;;0.45;0.45;;;;;;;8.53;100.00;100791.22;10493742;28;20085;-68
2024/02/29 10:45:27;;;;;;;0.60;0.60;;;;;;;8.66;100.00;100787.03;10492283;28;20025;-69
2024/02/29 10:50:27;;;;;;;0.40;0.40;;;;;;;8.79;100.00;100781.78;10492907;28;20752;-70
2024/02/29 10:55:28;;;;;;;1.08;1.08;;;;;;;8.87;100.00;100778.13;10474348;28;20058;-69
2024/02/29 11:00:28;;;;;;;0.80;0.80;;;;;;;8.81;100.00;100771.66;10474776;28;20060;-70
2024/02/29 11:05:29;;;;;;;0.88;0.88;;;;;;;9.04;100.00;100772.34;10491000;28;20053;-69
2024/02/29 11:10:30;;;;;;;1.40;1.40;;;;;;;9.13;100.00;100759.56;10491194;28;20040;-68
2024/02/29 11:15:30;;;;;;;1.05;1.05;;;;;;;9.19;100.00;100766.91;10490768;28;20039;-68
2024/02/29 11:20:32;;;;;;;0.50;0.50;;;;;;;9.14;100.00;100761.22;10492065;28;20119;-71
2024/02/29 11:25:32;;;;;;;0.63;0.63;;;;;;;9.22;100.00;100749.44;10492550;28;20036;-69
2024/02/29 11:30:32;;;;;;;1.85;1.77;;;;;;;9.16;100.00;100740.25;10492360;28;20477;-68
2024/02/29 11:35:33;;;;;;;0.43;0.43;;;;;;;8.99;100.00;100739.66;10495567;28;20086;-69
2024/02/29 11:40:34;;;;;;;0.70;0.70;;;;;;;9.04;100.00;100731.81;10495114;28;20102;-70
2024/02/29 11:45:35;;;;;;;0.90;0.90;;;;;;;9.05;100.00;100719.97;10474994;28;20019;-69
2024/02/29 11:50:37;;;;;;;1.40;1.40;;;;;;;9.16;100.00;100721.34;10492064;28;20037;-69
2024/02/29 11:55:37;;;;;;;1.27;1.27;;;;;;;9.07;100.00;100717.94;10491110;28;20148;-69
2024/02/29 12:00:38;;;;;;;0.50;0.50;;;;;;;9.01;100.00;100707.06;10491542;28;20571;-69
2024/02/29 12:05:38;;;;;;;0.40;0.40;;;;;;;9.12;100.00;100713.81;10490916;28;20036;-70
2024/02/29 12:10:39;;;;;;;0.75;0.75;;;;;;;9.02;100.00;100704.16;10491234;28;20024;-70
2024/02/29 12:15:39;;;;;;;0.50;0.50;;;;;;;8.95;100.00;100702.41;10473182;28;20056;-69
2024/02/29 12:20:40;;;;;;;0.40;0.40;;;;;;;8.85;100.00;100700.03;10489157;28;20468;-69
2024/02/29 12:25:42;;;;;;;1.77;1.67;;;;;;;8.97;100.00;100679.59;10490651;28;20025;-70
2024/02/29 12:30:45;;;;;;;0.88;0.88;;;;;;;8.95;100.00;100678.94;10490737;28;20029;-70
2024/02/29 12:35:45;;;;;;;0.50;0.50;;;;;;;9.02;100.00;100660.09;10496899;28;20028;-70
2024/02/29 12:40:46;;;;;;;0.30;0.30;;;;;;;9.03;100.00;100664.47;10496432;28;20032;-69
2024/02/29 12:45:46;;;;;;;4.35;4.00;;;;;;;9.01;100.00;100655.75;10496565;28;20474;-69
2024/02/29 12:50:47;;;;;;;0.88;0.88;;;;;;;8.99;100.00;100650.50;10496304;28;20523;-68
2024/02/29 12:55:47;;;;;;;0.50;0.50;;;;;;;9.05;100.00;100641.66;10495965;28;20055;-69
2024/02/29 13:00:48;;;;;;;1.20;1.20;;;;;;;9.04;100.00;100623.78;10497320;28;20135;-68
2024/02/29 13:05:48;;;;;;;0.77;0.77;;;;;;;8.96;100.00;100625.75;10497334;28;20024;-68
2024/02/29 13:10:49;;;;;;;0.50;0.50;;;;;;;8.94;100.00;100612.47;10497039;28;20081;-69
2024/02/29 13:15:50;;;;;;;0.60;0.60;;;;;;;8.83;100.00;100610.28;10495611;28;20044;-70
2024/02/29 13:20:50;;;;;;;0.50;0.50;;;;;;;8.74;100.00;100604.19;10496870;28;20028;-69
2024/02/29 13:25:51;;;;;;;0.60;0.60;;;;;;;8.66;100.00;100588.09;10495131;28;20052;-70
2024/02/29 13:30:51;;;;;;;1.45;1.45;;;;;;;8.58;100.00;100570.19;10495584;28;20488;-69
2024/02/29 13:35:52;;;;;;;0.43;0.43;;;;;;;8.66;100.00;100560.28;10494875;28;20108;-68
2024/02/29 13:40:52;;;;;;;0.60;0.60;;;;;;;8.66;100.00;100569.22;10496228;28;20357;-71
2024/02/29 13:45:53;;;;;;;0.50;0.50;;;;;;;8.74;100.00;100566.41;10494556;28;20028;-70
2024/02/29 13:50:54;;;;;;;0.50;0.50;;;;;;;8.71;100.00;100564.09;10494758;28;20082;-69
2024/02/29 13:55:55;;;;;;;0.30;0.30;;;;;;;8.71;100.00;100547.03;10493620;28;20058;-68
2024/02/29 14:00:55;;;;;;;0.68;0.68;;;;;;;8.67;100.00;100541.19;10494192;28;20025;-68
2024/02/29 14:05:56;;;;;;;0.50;0.50;;;;;;;8.73;100.00;100532.31;10495884;28;20163;-69
2024/02/29 14:10:56;;;;;;;1.33;1.33;;;;;;;8.79;100.00;100536.09;10495751;28;20055;-69
2024/02/29 14:15:57;;;;;;;4.38;1.95;;;;;;;8.76;100.00;100525.69;10493909;28;20029;-68
2024/02/29 14:20:59;;;;;;;0.60;0.60;;;;;;;8.70;100.00;100511.09;10495090;28;20025;-70
2024/02/29 14:26:00;;;;;;;0.52;0.52;;;;;;;8.71;100.00;100503.84;10493999;28;20033;-68
2024/02/29 14:31:01;;;;;;;4.93;1.42;;;;;;;8.77;100.00;100497.66;10476344;28;20024;-69
2024/02/29 14:36:02;;;;;;;0.50;0.50;;;;;;;8.76;100.00;100487.91;10492462;28;20081;-70
2024/02/29 14:41:02;;;;;;;0.50;0.50;;;;;;;8.75;100.00;100484.38;10493724;28;20043;-69
2024/02/29 14:46:02;;;;;;;0.63;0.63;;;;;;;8.69;100.00;100482.44;10493218;28;20107;-70
2024/02/29 14:51:03;;;;;;;0.60;0.60;;;;;;;8.66;100.00;100479.31;10493213;28;20036;-69
2024/02/29 14:56:04;;;;;;;5.32;1.42;;;;;;;8.66;100.00;100477.44;10490990;28;20452;-71
2024/02/29 15:01:05;;;;;;;0.77;0.77;;;;;;;8.55;100.00;100468.03;10493011;28;20028;-71
2024/02/29 15:06:06;;;;;;;0.88;0.88;;;;;;;8.59;100.00;100466.59;10492766;28;20025;-69
2024/02/29 15:11:07;;;;;;;0.40;0.40;;;;;;;8.72;100.00;100457.75;10491128;28;20660;-68
2024/02/29 15:16:08;;;;;;;1.13;1.13;;;;;;;8.65;100.00;100456.88;10490969;28;20153;-69
2024/02/29 15:21:08;;;;;;;0.50;0.50;;;;;;;8.59;100.00;100447.69;10492258;28;20035;-70
2024/02/29 15:26:10;;;;;;;0.70;0.70;;;;;;;8.55;100.00;100443.72;10491874;28;20056;-72
2024/02/29 15:31:11;;;;;;;0.40;0.40;;;;;;;8.55;100.00;100441.03;10490973;28;20055;-69
2024/02/29 15:36:11;;;;;;;0.63;0.63;;;;;;;8.52;100.00;100430.63;10492035;28;20060;-69
2024/02/29 15:41:11;;;;;;;1.23;1.23;;;;;;;8.52;100.00;100418.97;10491864;28;20487;-70
2024/02/29 15:46:12;;;;;;;0.45;0.45;;;;;;;8.52;100.00;100405.47;10491901;28;20039;-69
2024/02/29 15:51:12;;;;;;;0.60;0.60;;;;;;;8.56;100.00;100395.97;10490508;28;20128;-68
2024/02/29 15:56:14;;;;;;;0.57;0.57;;;;;;;8.60;100.00;100400.78;10489600;28;20060;-69
2024/02/29 16:01:15;;;;;;;0.70;0.70;;;;;;;8.61;100.00;100397.06;10490240;28;20490;-69
2024/02/29 16:06:16;;;;;;;0.55;0.55;;;;;;;8.52;100.00;100381.19;10490703;28;20020;-68
2024/02/29 16:11:19;;;;;;;0.50;0.50;;;;;;;8.53;100.00;100372.09;10498316;28;20405;-68
2024/02/29 16:16:20;;;;;;;0.75;0.75;;;;;;;8.52;100.00;100365.84;10497991;28;20028;-70
2024/02/29 16:21:20;;;;;;;0.90;0.90;;;;;;;8.46;100.00;100372.03;10499649;28;20029;-69
2024/02/29 16:26:24;;;;;;;0.75;0.75;;;;;;;8.44;100.00;100359.78;10497268;28;20048;-70
2024/02/29 16:31:24;;;;;;;0.60;0.60;;;;;;;8.50;100.00;100351.72;10514436;28;20097;-69
2024/02/29 16:36:24;;;;;;;0.60;0.60;;;;;;;8.47;100.00;100349.41;10498446;28;20081;-69
2024/02/29 16:41:25;;;;;;;0.47;0.47;;;;;;;8.42;100.00;100338.38;10498516;28;20089;-68
2024/02/29 16:46:26;;;;;;;0.55;0.55;;;;;;;8.36;100.00;100331.88;10498394;28;20127;-69
2024/02/29 16:51:26;;;;;;;0.45;0.45;;;;;;;8.39;100.00;100322.56;10498348;28;20040;-69
2024/02/29 16:56:27;;;;;;;0.43;0.43;;;;;;;8.37;100.00;100324.63;10498066;28;20053;-70
2024/02/29 17:01:28;;;;;;;1.23;1.23;;;;;;;8.40;100.00;100324.25;10480299;28;20025;-69
2024/02/29 17:06:29;;;;;;;1.10;1.10;;;;;;;8.40;100.00;100324.25;10496939;28;20028;-70
2024/02/29 17:11:30;;;;;;;1.40;1.40;;;;;;;8.41;100.00;100323.22;10498398;28;20035;-70
2024/02/29 17:16:30;;;;;;;0.43;0.43;;;;;;;8.45;100.00;100313.69;10498551;28;20388;-68
2024/02/29 17:21:30;;;;;;;0.35;0.35;;;;;;;8.51;100.00;100318.28;10496033;28;20111;-70
2024/02/29 17:26:31;;;;;;;0.50;0.50;;;;;;;8.40;100.00;100312.63;10495389;28;20107;-70
2024/02/29 17:31:31;;;;;;;4.10;1.52;;;;;;;8.39;100.00;100301.00;10495792;28;20085;-69
2024/02/29 17:36:32;;;;;;;0.50;0.50;;;;;;;8.45;100.00;100299.38;10496869;28;20525;-69
2024/02/29 17:41:32;;;;;;;0.93;0.93;;;;;;;8.45;100.00;100277.78;10495392;28;20044;-69
2024/02/29 17:46:33;;;;;;;0.85;0.85;;;;;;;8.41;100.00;100281.91;10496253;28;20089;-70
2024/02/29 17:51:34;;;;;;;0.60;0.60;;;;;;;8.46;100.00;100293.78;10496094;28;20024;-69
2024/02/29 17:56:34;;;;;;;0.50;0.50;;;;;;;8.48;100.00;100302.50;10493724;28;20468;-70
2024/02/29 18:01:35;;;;;;;4.78;1.55;;;;;;;8.57;100.00;100295.91;10495677;28;20036;-69
2024/02/29 18:06:35;;;;;;;0.50;0.50;;;;;;;8.52;100.00;100287.59;10495105;28;20033;-68
2024/02/29 18:11:36;;;;;;;1.63;1.63;;;;;;;8.46;100.00;100293.78;10495038;28;20033;-68
2024/02/29 18:16:37;;;;;;;1.88;1.73;;;;;;;8.51;100.00;100291.31;10496211;28;20033;-70
2024/02/29 18:21:43;;;;;;;0.70;0.70;;;;;;;8.54;100.00;100287.38;10477740;28;20057;-69
2024/02/29 18:26:46;;;;;;;;;;;;;;;8.55;100.00;100278.25;10495814;28;20067;-68
2024/02/29 18:31:46;;;;;;;0.68;0.68;;;;;;;8.52;100.00;100274.09;10495049;28;19989;-70
2024/02/29 18:36:47;;;;;;;1.33;1.33;;;;;;;8.57;100.00;100273.50;10492828;28;20564;-69
2024/02/29 18:41:47;;;;;;;1.10;1.10;;;;;;;8.65;100.00;100267.94;10494320;28;20055;-68
2024/02/29 18:46:47;;;;;;;0.50;0.50;;;;;;;8.56;100.00;100266.44;10494050;28;20068;-69
2024/02/29 18:51:48;;;;;;;1.63;1.58;;;;;;;8.55;100.00;100257.53;10475809;28;20135;-69
2024/02/29 18:56:48;;;;;;;0.55;0.55;;;;;;;8.51;100.00;100253.53;10491280;28;20048;-69
2024/02/29 19:01:51;;;;;;;1.25;1.25;;;;;;;8.50;100.00;100253.75;10493448;28;20028;-69
2024/02/29 19:06:51;;;;;;;0.70;0.70;;;;;;;8.53;100.00;100247.94;10493011;28;20044;-70
2024/02/29 19:11:52;;;;;;;0.40;0.40;;;;;;;8.55;100.00;100241.31;10492905;28;20408;-70
2024/02/29 19:16:52;;;;;;;1.08;1.08;;;;;;;8.58;100.00;100242.75;10492496;28;20040;-70
2024/02/29 19:21:53;;;;;;;0.60;0.60;;;;;;;8.62;100.00;100241.34;10492444;28;20021;-69
2024/02/29 19:26:53;;;;;;;0.90;0.90;;;;;;;8.56;100.00;100237.59;10491995;28;20526;-70
2024/02/29 19:31:53;;;;;;;8.98;3.08;;;;;;;8.66;100.00;100218.31;10492355;28;20111;-70
2024/02/29 19:36:54;;;;;;;4.15;1.55;;;;;;;8.57;100.00;100212.25;10491132;28;20088;-69
2024/02/29 19:41:55;;;;;;;3.92;1.33;;;;;;;8.60;100.00;100198.34;10491344;28;20036;-70
2024/02/29 19:46:55;;;;;;;0.60;0.60;;;;;;;8.60;100.00;100214.56;10438682;28;20052;-71
2024/02/29 19:51:56;;;;;;;0.70;0.70;;;;;;;8.60;100.00;100194.84;10486587;28;20048;-71
2024/02/29 19:56:56;;;;;;;0.45;0.45;;;;;;;8.59;100.00;100193.19;10490001;28;20053;-71
2024/02/29 20:01:56;;;;;;;0.45;0.45;;;;;;;8.65;100.00;100183.41;10490846;28;20064;-70
2024/02/29 20:06:57;;;;;;;0.60;0.60;;;;;;;8.66;100.00;100175.13;10489946;28;20028;-70
2024/02/29 20:11:57;;;;;;;0.82;0.82;;;;;;;8.57;100.00;100168.25;10490642;28;20044;-71
2024/02/29 20:16:58;;;;;;;0.93;0.93;;;;;;;8.59;100.00;100164.31;10472832;28;20376;-70
2024/02/29 20:21:58;;;;;;;2.33;2.17;;;;;;;8.67;100.00;100152.50;10489350;28;20068;-70
2024/02/29 20:26:59;;;;;;;0.50;0.50;;;;;;;8.69;100.00;100155.00;10488587;28;20590;-72
2024/02/29 20:31:59;;;;;;;1.70;1.67;;;;;;;8.69;100.00;100144.22;10490703;28;20078;-70
2024/02/29 20:37:00;;;;;;;2.25;1.40;;;;;;;8.71;100.00;100155.63;10490027;28;20058;-69
2024/02/29 20:42:01;;;;;;;1.88;1.85;;;;;;;8.63;100.00;100136.94;10490214;28;20092;-69
2024/02/29 20:47:02;;;;;;;0.70;0.70;;;;;;;8.65;100.00;100122.19;10490223;28;20054;-71
2024/02/29 20:52:02;;;;;;;0.80;0.80;;;;;;;8.65;100.00;100132.13;10490369;28;20028;-69
2024/02/29 20:57:03;;;;;;;0.60;0.60;;;;;;;8.66;100.00;100114.94;10496710;28;20049;-71
2024/02/29 21:02:04;;;;;;;1.23;1.23;;;;;;;8.65;100.00;100114.09;10497354;28;20042;-72
2024/02/29 21:07:04;;;;;;;1.13;1.13;;;;;;;8.65;100.00;100113.25;10497064;28;20086;-71
2024/02/29 21:12:05;;;;;;;0.77;0.77;;;;;;;8.66;100.00;100107.66;10478799;28;20040;-71
2024/02/29 21:17:05;;;;;;;0.70;0.70;;;;;;;8.64;100.00;100109.72;10496562;28;20098;-71
2024/02/29 21:22:06;;;;;;;1.23;1.23;;;;;;;8.66;100.00;100102.25;10478983;28;20107;-71
2024/02/29 21:27:07;;;;;;;0.80;0.80;;;;;;;8.68;100.00;100097.50;10496214;28;20650;-70
2024/02/29 21:32:07;;;;;;;0.50;0.50;;;;;;;8.70;100.00;100098.09;10495535;28;20070;-70
2024/02/29 21:37:09;;;;;;;0.40;0.40;;;;;;;8.75;100.00;100092.94;10475854;28;20349;-72
2024/02/29 21:42:09;;;;;;;2.95;2.75;;;;;;;8.78;100.00;100091.69;10495600;28;20071;-70
2024/02/29 21:47:10;;;;;;;0.52;0.52;;;;;;;8.74;100.00;100082.31;10495793;28;20047;-70
2024/02/29 21:52:10;;;;;;;2.47;2.38;;;;;;;8.71;100.00;100066.53;10495596;28;20036;-71
2024/02/29 21:57:10;;;;;;;2.80;2.65;;;;;;;8.75;100.00;100062.41;10493837;28;20087;-69
2024/02/29 22:02:12;;;;;;;1.35;1.35;;;;;;;8.75;100.00;100062.41;10495481;28;20068;-73
2024/02/29 22:07:13;;;;;;;0.50;0.50;;;;;;;8.74;100.00;100050.78;10492489;28;20028;-69
2024/02/29 22:12:13;;;;;;;1.00;1.00;;;;;;;8.67;100.00;100047.22;10494482;28;20518;-71
2024/02/29 22:17:13;;;;;;;0.95;0.95;;;;;;;8.75;100.00;100043.53;10494262;28;20032;-70
2024/02/29 22:22:14;;;;;;;1.50;1.50;;;;;;;8.77;100.00;100038.72;10494786;28;20441;-70
2024/02/29 22:27:15;;;;;;;1.63;1.63;;;;;;;8.71;100.00;100026.91;10493972;28;20469;-70
2024/02/29 22:32:15;;;;;;;3.55;3.30;;;;;;;8.75;100.00;100021.94;10494240;28;20032;-70
2024/02/29 22:37:16;;;;;;;1.35;1.35;;;;;;;8.81;100.00;100013.00;10493917;28;20032;-69
2024/02/29 22:42:16;;;;;;;1.00;1.00;;;;;;;8.80;100.00;100006.75;10494169;28;20442;-69
2024/02/29 22:47:17;;;;;;;13.40;12.30;;;;;;;8.78;100.00;100003.44;10492814;28;20021;-69
2024/02/29 22:52:17;;;;;;;14.05;12.63;;;;;;;8.82;100.00;100003.84;10493718;28;20038;-70
2024/02/29 22:57:17;;;;;;;13.75;11.57;;;;;;;8.85;100.00;99996.16;10492687;28;20059;-70
2024/02/29 23:02:18;;;;;;;13.30;12.00;;;;;;;8.85;100.00;99992.63;10493603;28;20032;-70